Time;durP1;ratioP1;P1;durP2;ratioP2;P2;SDS_P1;SDS_P2;PMS_P1;PMS_P2;Temp;Humidity;BMP_temperature;BMP_pressure;BME280_temperature;BME280_humidity;BME280_pressure;Samples;Min_cycle;Max_cycle;Signal;HPM_P1;HPM_P2
2024/02/02 00:00:47;;;;;;;14.98;7.60;;;;;;;2.11;100.00;98914.59;5041071;28;20970;-81
2024/02/02 00:03:13;;;;;;;13.07;6.60;;;;;;;2.16;100.00;98918.38;5040860;28;20464;-81
2024/02/02 00:05:39;;;;;;;12.93;6.40;;;;;;;2.21;100.00;98918.72;5041111;28;20395;-81
2024/02/02 00:08:06;;;;;;;11.30;6.03;;;;;;;2.25;100.00;98906.16;5041014;28;20427;-81
2024/02/02 00:10:32;;;;;;;12.88;7.05;;;;;;;2.25;100.00;98908.78;5041398;28;20399;-81
2024/02/02 00:12:58;;;;;;;13.65;6.68;;;;;;;2.22;100.00;98906.47;5040674;28;20399;-81
2024/02/02 00:15:25;;;;;;;12.63;7.15;;;;;;;2.20;100.00;98904.00;5040103;28;20444;-81
2024/02/02 00:17:52;;;;;;;11.10;6.10;;;;;;;2.19;100.00;98891.94;5041121;28;20415;-81
2024/02/02 00:20:18;;;;;;;9.85;5.63;;;;;;;2.16;100.00;98907.13;5041047;28;20395;-81
2024/02/02 00:22:44;;;;;;;9.63;5.15;;;;;;;2.13;100.00;98908.25;5041550;28;20387;-81
2024/02/02 00:25:11;;;;;;;8.82;4.88;;;;;;;2.10;100.00;98907.78;5049355;28;20445;-80
2024/02/02 00:27:37;;;;;;;8.80;5.07;;;;;;;2.05;100.00;98904.78;5042730;28;20418;-80
2024/02/02 00:30:04;;;;;;;7.90;5.05;;;;;;;1.99;100.00;98902.81;5040663;28;20902;-80
2024/02/02 00:32:30;;;;;;;8.55;5.20;;;;;;;1.91;100.00;98901.00;5040618;28;20430;-80
2024/02/02 00:34:57;;;;;;;8.75;4.93;;;;;;;1.83;100.00;98898.38;5040641;28;20909;-81
2024/02/02 00:37:23;;;;;;;7.90;4.97;;;;;;;1.74;100.00;98892.31;5041074;28;20431;-80
2024/02/02 00:39:50;;;;;;;8.82;5.18;;;;;;;1.67;100.00;98887.88;5040298;28;20453;-81
2024/02/02 00:42:16;;;;;;;6.10;4.70;;;;;;;1.61;100.00;98885.91;5040099;28;20410;-81
2024/02/02 00:44:42;;;;;;;7.88;4.43;;;;;;;1.55;100.00;98887.34;5040104;28;20502;-80
2024/02/02 00:47:08;;;;;;;5.38;4.10;;;;;;;1.52;100.00;98896.28;5040338;28;20446;-79
2024/02/02 00:49:34;;;;;;;9.40;5.30;;;;;;;1.54;100.00;98890.94;5041235;28;20423;-80
2024/02/02 00:52:02;;;;;;;8.77;5.70;;;;;;;1.55;100.00;98887.34;5041027;28;20900;-81
2024/02/02 00:54:28;;;;;;;11.53;6.57;;;;;;;1.55;100.00;98889.97;5041225;28;20443;-81
2024/02/02 00:56:54;;;;;;;8.90;6.20;;;;;;;1.59;100.00;98886.03;5041142;28;20403;-81
2024/02/02 00:59:20;;;;;;;9.55;5.70;;;;;;;1.62;100.00;98885.75;5041487;28;20437;-80
2024/02/02 01:01:46;;;;;;;9.80;5.80;;;;;;;1.65;100.00;98882.84;5041194;28;20442;-80
2024/02/02 01:04:12;;;;;;;8.35;4.85;;;;;;;1.69;100.00;98876.31;5027466;28;20412;-81
2024/02/02 01:06:38;;;;;;;6.80;4.50;;;;;;;1.74;100.00;98871.41;5021132;28;20916;-81
2024/02/02 01:09:06;;;;;;;10.50;4.75;;;;;;;1.77;100.00;98868.50;5020611;28;20508;-81
2024/02/02 01:11:32;;;;;;;6.45;4.85;;;;;;;1.81;100.00;98864.59;5020438;28;20405;-80
2024/02/02 01:13:58;;;;;;;6.60;4.35;;;;;;;1.85;100.00;98862.50;5028326;28;21010;-81
2024/02/02 01:16:24;;;;;;;7.43;4.60;;;;;;;1.86;100.00;98857.13;5039569;28;20430;-80
2024/02/02 01:18:50;;;;;;;8.63;5.47;;;;;;;1.86;100.00;98870.16;5039256;28;20411;-81
2024/02/02 01:21:17;;;;;;;8.90;5.40;;;;;;;1.82;100.00;98861.00;5039039;28;20406;-81
2024/02/02 01:23:43;;;;;;;7.72;5.07;;;;;;;1.79;100.00;98877.00;5039030;28;20406;-81
2024/02/02 01:26:10;;;;;;;7.80;4.85;;;;;;;1.75;100.00;98862.63;5037424;28;20407;-81
2024/02/02 01:28:36;;;;;;;7.72;4.97;;;;;;;1.69;100.00;98875.50;5041378;28;20423;-81
2024/02/02 01:31:03;;;;;;;7.75;4.90;;;;;;;1.62;100.00;98869.25;5039229;28;20404;-80
2024/02/02 01:33:29;;;;;;;8.98;5.43;;;;;;;1.55;100.00;98856.84;5038994;28;20425;-80
2024/02/02 01:35:55;;;;;;;5.80;4.78;;;;;;;1.51;100.00;98860.75;5038977;28;20395;-80
2024/02/02 01:38:21;;;;;;;8.38;5.22;;;;;;;1.46;100.00;98864.78;5038839;28;20403;-80
2024/02/02 01:40:47;;;;;;;13.73;6.60;;;;;;;1.42;100.00;98863.50;5040045;28;20406;-80
2024/02/02 01:43:15;;;;;;;9.50;6.00;;;;;;;1.40;100.00;98855.00;5041664;28;20445;-80
2024/02/02 01:45:41;;;;;;;9.60;5.50;;;;;;;1.41;100.00;98856.63;5041488;28;20415;-80
2024/02/02 01:48:08;;;;;;;9.43;5.53;;;;;;;1.40;100.00;98852.38;5039471;28;20415;-80
2024/02/02 01:50:34;;;;;;;8.68;4.97;;;;;;;1.39;100.00;98855.97;5039253;28;20434;-80
2024/02/02 01:53:01;;;;;;;9.43;5.20;;;;;;;1.40;100.00;98857.59;5039421;28;20403;-80
2024/02/02 01:55:27;;;;;;;7.18;4.63;;;;;;;1.43;100.00;98857.28;5039258;28;20726;-80
2024/02/02 01:57:54;;;;;;;5.63;4.40;;;;;;;1.45;100.00;98853.53;5039888;28;20410;-81
2024/02/02 02:00:22;;;;;;;6.75;4.65;;;;;;;1.50;100.00;98866.13;5042816;28;20396;-80
2024/02/02 02:02:48;;;;;;;9.48;5.18;;;;;;;1.53;100.00;98863.19;5043346;28;20821;-80
2024/02/02 02:05:14;;;;;;;10.20;5.20;;;;;;;1.58;100.00;98867.97;5043224;28;20399;-80
2024/02/02 02:07:44;;;;;;;8.85;5.53;;;;;;;1.58;100.00;98855.69;5042996;28;21121;-80
2024/02/02 02:10:10;;;;;;;6.85;5.00;;;;;;;1.59;100.00;98857.34;5043399;28;20459;-81
2024/02/02 02:12:36;;;;;;;9.63;5.68;;;;;;;1.61;100.00;98850.19;5043192;28;20422;-81
2024/02/02 02:15:03;;;;;;;10.93;5.60;;;;;;;1.62;100.00;98841.38;5043474;28;20464;-80
2024/02/02 02:17:30;;;;;;;8.40;5.25;;;;;;;1.63;100.00;98843.00;5044673;28;20399;-81
2024/02/02 02:19:58;;;;;;;8.98;5.30;;;;;;;1.65;100.00;98846.28;5045839;28;20391;-81
2024/02/02 02:22:25;;;;;;;12.52;5.93;;;;;;;1.66;100.00;98845.28;5045047;28;20457;-81
2024/02/02 02:24:52;;;;;;;12.52;5.93;;;;;;;1.66;100.00;98847.09;5045358;28;20403;-81
2024/02/02 02:27:18;;;;;;;13.25;6.07;;;;;;;1.65;100.00;98845.47;5045587;28;20445;-80
2024/02/02 02:29:44;;;;;;;14.43;7.30;;;;;;;1.62;100.00;98845.78;5045907;28;20423;-81
2024/02/02 02:32:10;;;;;;;11.15;7.13;;;;;;;1.59;100.00;98841.69;5045438;28;20426;-78
2024/02/02 02:34:36;;;;;;;16.83;8.50;;;;;;;1.58;100.00;98837.44;5043833;28;20807;-81
2024/02/02 02:37:03;;;;;;;19.17;8.40;;;;;;;1.55;100.00;98833.38;5044079;28;20764;-81
2024/02/02 02:39:30;;;;;;;14.38;8.25;;;;;;;1.57;100.00;98829.78;5043261;28;20410;-81
2024/02/02 02:41:56;;;;;;;19.13;9.00;;;;;;;1.60;100.00;98821.63;5043590;28;20406;-79
2024/02/02 02:44:22;;;;;;;12.40;7.90;;;;;;;1.65;100.00;98830.63;5042891;28;20395;-80
2024/02/02 02:46:51;;;;;;;11.40;7.63;;;;;;;1.68;100.00;98830.28;5042999;28;20398;-81
2024/02/02 02:49:17;;;;;;;24.35;9.73;;;;;;;1.76;100.00;98824.28;5043144;28;20411;-80
2024/02/02 02:51:43;;;;;;;23.05;10.68;;;;;;;1.82;100.00;98823.63;5043351;28;20411;-80
2024/02/02 02:54:09;;;;;;;16.52;9.05;;;;;;;1.86;100.00;98825.78;5043769;28;20407;-81
2024/02/02 02:56:37;;;;;;;19.23;9.20;;;;;;;1.94;100.00;98830.22;5043170;28;20402;-81
2024/02/02 02:59:03;;;;;;;15.88;8.93;;;;;;;1.98;100.00;98828.06;5044061;28;20426;-80
2024/02/02 03:01:29;;;;;;;16.98;9.00;;;;;;;2.00;100.00;98833.97;5042662;28;20395;-81
2024/02/02 03:03:55;;;;;;;18.75;9.27;;;;;;;2.02;100.00;98825.00;5042606;28;20486;-80
2024/02/02 03:06:21;;;;;;;13.25;8.35;;;;;;;2.03;100.00;98821.38;5042707;28;20410;-81
2024/02/02 03:08:47;;;;;;;14.57;7.97;;;;;;;2.06;100.00;98823.69;5042677;28;20449;-79
2024/02/02 03:11:14;;;;;;;10.70;6.82;;;;;;;2.11;100.00;98838.84;5042659;28;20442;-81
2024/02/02 03:13:41;;;;;;;12.18;7.10;;;;;;;2.12;100.00;98828.25;5042867;28;20399;-81
2024/02/02 03:16:07;;;;;;;13.85;7.13;;;;;;;2.14;100.00;98828.09;5042217;28;20422;-80
2024/02/02 03:18:33;;;;;;;11.85;6.70;;;;;;;2.16;100.00;98828.75;5043021;28;20403;-81
2024/02/02 03:21:00;;;;;;;10.65;6.45;;;;;;;2.16;100.00;98818.31;5042316;28;20753;-81
2024/02/02 03:23:26;;;;;;;11.73;7.37;;;;;;;2.15;100.00;98814.06;5042686;28;20404;-81
2024/02/02 03:25:52;;;;;;;10.45;6.75;;;;;;;2.14;100.00;98812.44;5042983;28;20489;-80
2024/02/02 03:28:18;;;;;;;11.93;7.13;;;;;;;2.15;100.00;98812.28;5041637;28;20780;-80
2024/02/02 03:30:46;;;;;;;13.23;7.15;;;;;;;2.16;100.00;98813.09;5042021;28;20871;-80
2024/02/02 03:33:12;;;;;;;11.15;6.93;;;;;;;2.14;100.00;98810.63;5040999;28;20753;-81
2024/02/02 03:35:38;;;;;;;20.20;10.10;;;;;;;2.15;100.00;98816.69;5041678;28;20415;-80
2024/02/02 03:38:04;;;;;;;23.73;10.10;;;;;;;2.14;100.00;98809.81;5041820;28;20459;-81
2024/02/02 03:40:30;;;;;;;17.58;9.23;;;;;;;2.14;100.00;98810.63;5041640;28;20452;-80
2024/02/02 03:42:56;;;;;;;15.13;7.88;;;;;;;2.15;100.00;98827.94;5041699;28;20387;-81
2024/02/02 03:45:23;;;;;;;18.10;7.85;;;;;;;2.17;100.00;98833.00;5041971;28;20425;-80
2024/02/02 03:47:50;;;;;;;15.03;7.77;;;;;;;2.16;100.00;98820.94;5040801;28;20479;-80
2024/02/02 03:50:16;;;;;;;17.48;8.32;;;;;;;2.15;100.00;98821.91;5041606;28;20470;-80
2024/02/02 03:52:42;;;;;;;17.23;8.60;;;;;;;2.15;100.00;98822.72;5040430;28;20399;-80
2024/02/02 03:55:09;;;;;;;16.55;8.57;;;;;;;2.13;100.00;98816.00;5041390;28;20905;-80
2024/02/02 03:57:35;;;;;;;16.93;8.20;;;;;;;2.14;100.00;98817.66;5041818;28;20398;-81
2024/02/02 04:00:04;;;;;;;15.00;8.00;;;;;;;2.14;100.00;98820.25;5040180;28;20417;-80
2024/02/02 04:02:30;;;;;;;14.73;8.25;;;;;;;2.11;100.00;98820.56;5041669;28;20395;-80
2024/02/02 04:04:58;;;;;;;29.40;12.15;;;;;;;2.07;100.00;98807.03;5040935;28;20756;-80
2024/02/02 04:07:24;;;;;;;24.08;12.10;;;;;;;2.09;100.00;98817.31;5040054;28;20434;-80
2024/02/02 04:09:50;;;;;;;21.45;10.88;;;;;;;2.09;100.00;98815.53;5042541;28;20462;-80
2024/02/02 04:12:17;;;;;;;19.73;11.20;;;;;;;2.09;100.00;98819.94;5042491;28;20399;-80
2024/02/02 04:14:43;;;;;;;17.95;10.00;;;;;;;2.09;100.00;98828.59;5042257;28;20410;-80
2024/02/02 04:17:09;;;;;;;17.05;9.38;;;;;;;2.10;100.00;98829.41;5045242;28;20476;-80
2024/02/02 04:19:36;;;;;;;16.77;9.23;;;;;;;2.12;100.00;98833.47;5039863;28;20541;-80
2024/02/02 04:22:03;;;;;;;20.83;10.18;;;;;;;2.15;100.00;98829.72;5039927;28;20399;-81
2024/02/02 04:24:29;;;;;;;17.53;9.40;;;;;;;2.16;100.00;98834.81;5040578;28;20395;-80
2024/02/02 04:26:55;;;;;;;15.20;9.15;;;;;;;2.21;100.00;98832.50;5040366;28;20421;-80
2024/02/02 04:29:22;;;;;;;16.33;8.93;;;;;;;2.24;100.00;98832.19;5040094;28;20418;-80
2024/02/02 04:31:48;;;;;;;22.52;11.75;;;;;;;2.29;100.00;98834.31;5039861;28;20884;-81
2024/02/02 04:34:14;;;;;;;21.30;11.13;;;;;;;2.31;100.00;98830.56;5040926;28;20403;-81
2024/02/02 04:36:41;;;;;;;22.15;11.73;;;;;;;2.36;100.00;98824.03;5040291;28;20420;-80
2024/02/02 04:39:08;;;;;;;28.20;13.85;;;;;;;2.38;100.00;98830.72;5040500;28;20498;-80
2024/02/02 04:41:34;;;;;;;26.63;13.65;;;;;;;2.39;100.00;98837.59;5041047;28;20438;-81
2024/02/02 04:44:00;;;;;;;29.30;14.13;;;;;;;2.44;100.00;98844.94;5041420;28;20402;-80
2024/02/02 04:46:27;;;;;;;24.17;13.13;;;;;;;2.49;100.00;98835.59;5043103;28;20395;-80
2024/02/02 04:48:53;;;;;;;22.73;13.18;;;;;;;2.55;100.00;98836.78;5045984;28;20426;-80
2024/02/02 04:51:19;;;;;;;29.97;14.97;;;;;;;2.58;100.00;98831.19;5040062;28;20884;-80
2024/02/02 04:53:45;;;;;;;29.40;15.55;;;;;;;2.59;100.00;98838.88;5039968;28;20395;-80
2024/02/02 04:56:13;;;;;;;30.23;15.43;;;;;;;2.60;100.00;98835.28;5040997;28;20414;-80
2024/02/02 04:58:39;;;;;;;48.80;20.92;;;;;;;2.60;100.00;98842.31;5059880;28;20401;-80
2024/02/02 05:01:05;;;;;;;54.78;23.83;;;;;;;2.62;100.00;98835.94;5060122;28;20513;-80
2024/02/02 05:03:31;;;;;;;35.05;18.65;;;;;;;2.66;100.00;98836.41;5054792;28;20411;-80
2024/02/02 05:05:58;;;;;;;37.63;17.65;;;;;;;2.68;100.00;98845.75;5037982;28;20423;-80
2024/02/02 05:08:24;;;;;;;36.13;17.02;;;;;;;2.69;100.00;98850.00;5048763;28;20418;-80
2024/02/02 05:10:50;;;;;;;33.33;15.90;;;;;;;2.69;100.00;98844.75;5050005;28;20813;-78
2024/02/02 05:13:17;;;;;;;31.27;14.95;;;;;;;2.68;100.00;98844.94;5045290;28;20397;-80
2024/02/02 05:15:44;;;;;;;28.10;13.80;;;;;;;2.69;100.00;98854.41;5049124;28;20440;-81
2024/02/02 05:18:10;;;;;;;30.35;14.13;;;;;;;2.69;100.00;98851.78;5046709;28;20397;-80
2024/02/02 05:20:38;;;;;;;25.83;12.85;;;;;;;2.70;100.00;98851.63;5039616;28;20403;-80
2024/02/02 05:23:04;;;;;;;29.13;12.98;;;;;;;2.71;100.00;98855.84;5035357;28;20430;-80
2024/02/02 05:25:30;;;;;;;26.60;13.23;;;;;;;2.73;100.00;98855.69;5035583;28;20482;-79
2024/02/02 05:27:56;;;;;;;25.15;12.80;;;;;;;2.73;100.00;98856.50;5035214;28;20422;-79
2024/02/02 05:30:24;;;;;;;29.90;13.37;;;;;;;2.75;100.00;98858.16;5034880;28;20395;-80
2024/02/02 05:32:50;;;;;;;27.67;13.07;;;;;;;2.77;100.00;98867.47;5036075;28;20490;-80
2024/02/02 05:35:25;;;;;;;25.15;12.30;;;;;;;2.79;100.00;98873.31;5034208;28;20417;-81
2024/02/02 05:37:51;;;;;;;28.38;13.13;;;;;;;2.83;100.00;98884.28;5030929;28;20503;-80
2024/02/02 05:40:17;;;;;;;29.00;13.90;;;;;;;2.86;100.00;98883.94;5037719;28;20780;-79
2024/02/02 05:42:45;;;;;;;26.10;13.02;;;;;;;2.89;100.00;98896.69;5042174;28;20406;-81
2024/02/02 05:45:11;;;;;;;26.27;12.90;;;;;;;2.91;100.00;98889.50;5039827;28;20410;-81
2024/02/02 05:47:39;;;;;;;24.70;12.40;;;;;;;2.93;100.00;98890.97;5038186;28;20455;-80
2024/02/02 05:50:06;;;;;;;23.02;11.15;;;;;;;2.94;100.00;98900.44;5039239;28;20403;-81
2024/02/02 05:52:32;;;;;;;32.15;13.48;;;;;;;2.95;100.00;98890.81;5039528;28;20407;-83
2024/02/02 05:54:58;;;;;;;29.70;13.45;;;;;;;2.95;100.00;98893.41;5037326;28;20395;-81
2024/02/02 05:57:24;;;;;;;30.90;13.07;;;;;;;2.95;100.00;98882.97;5038421;28;20406;-83
2024/02/02 05:59:51;;;;;;;26.73;12.85;;;;;;;2.96;100.00;98885.41;5039387;28;20399;-81
2024/02/02 06:02:17;;;;;;;24.53;12.63;;;;;;;2.97;100.00;98894.06;5041036;28;20425;-80
2024/02/02 06:04:45;;;;;;;27.23;13.07;;;;;;;2.98;100.00;98891.31;5037940;28;20891;-80
2024/02/02 06:07:11;;;;;;;25.50;12.25;;;;;;;2.99;100.00;98890.31;5037623;28;20475;-80
2024/02/02 06:09:37;;;;;;;23.67;11.57;;;;;;;3.02;100.00;98894.38;5036390;28;20410;-80
2024/02/02 06:12:04;;;;;;;22.17;10.65;;;;;;;3.03;100.00;98886.38;5038137;28;20398;-78
2024/02/02 06:14:30;;;;;;;21.88;10.38;;;;;;;3.06;100.00;98885.25;5037083;28;20506;-80
2024/02/02 06:16:57;;;;;;;20.23;10.38;;;;;;;3.06;100.00;98888.69;5037013;28;20967;-80
2024/02/02 06:19:23;;;;;;;19.73;10.17;;;;;;;3.07;100.00;98895.53;5038552;28;20457;-81
2024/02/02 06:21:50;;;;;;;18.85;9.77;;;;;;;3.08;100.00;98894.53;5035414;28;20406;-80
2024/02/02 06:24:16;;;;;;;20.95;10.30;;;;;;;3.08;100.00;98891.13;5034605;28;20507;-79
2024/02/02 06:26:43;;;;;;;17.83;9.35;;;;;;;3.08;100.00;98891.13;5034726;28;20961;-80
2024/02/02 06:29:09;;;;;;;29.67;13.65;;;;;;;3.08;100.00;98888.53;5042851;28;20521;-79
2024/02/02 06:31:35;;;;;;;26.25;12.27;;;;;;;3.10;100.00;98886.53;5045549;28;20414;-80
2024/02/02 06:34:01;;;;;;;23.02;11.23;;;;;;;3.10;100.00;98892.56;5043775;28;20818;-82
2024/02/02 06:36:28;;;;;;;18.63;9.85;;;;;;;3.12;100.00;98900.28;5040855;28;20796;-81
2024/02/02 06:38:56;;;;;;;19.27;9.80;;;;;;;3.13;100.00;98904.53;5041777;28;20403;-79
2024/02/02 06:41:23;;;;;;;18.15;9.13;;;;;;;3.13;100.00;98912.38;5042198;28;20467;-80
2024/02/02 06:43:49;;;;;;;16.45;8.20;;;;;;;3.14;100.00;98916.63;5042938;28;20800;-81
2024/02/02 06:46:15;;;;;;;18.35;8.98;;;;;;;3.13;100.00;98922.84;5041256;28;20391;-81
2024/02/02 06:48:44;;;;;;;19.87;9.97;;;;;;;3.11;100.00;98928.22;5041448;28;20462;-80
2024/02/02 06:51:10;;;;;;;21.75;9.82;;;;;;;3.11;100.00;98923.00;5044382;28;20395;-81
2024/02/02 06:53:36;;;;;;;19.98;9.70;;;;;;;3.11;100.00;98920.38;5041496;28;20407;-80
2024/02/02 06:56:28;;;;;;;17.98;8.88;;;;;;;3.13;100.00;98930.69;5044226;28;20431;-80
2024/02/02 06:58:54;;;;;;;21.60;10.38;;;;;;;3.14;100.00;98928.88;5054168;28;20403;-80
2024/02/02 07:01:20;;;;;;;23.13;10.25;;;;;;;3.16;100.00;98932.16;5054338;28;20413;-80
2024/02/02 07:03:48;;;;;;;21.63;10.85;;;;;;;3.16;100.00;98921.69;5053687;28;20395;-79
2024/02/02 07:06:14;;;;;;;22.08;10.85;;;;;;;3.18;100.00;98917.91;5049148;28;20391;-80
2024/02/02 07:08:40;;;;;;;18.77;9.32;;;;;;;3.18;100.00;98925.75;5048502;28;20668;-80
2024/02/02 07:11:27;;;;;;;19.63;10.40;;;;;;;3.21;100.00;98919.38;5049685;28;20449;-80
2024/02/02 07:13:54;;;;;;;19.73;10.15;;;;;;;3.23;100.00;98926.09;5046420;28;20731;-81
2024/02/02 07:16:26;;;;;;;20.05;9.35;;;;;;;3.25;100.00;98928.53;5040840;28;20399;-80
2024/02/02 07:18:53;;;;;;;19.40;9.05;;;;;;;3.27;100.00;98930.00;5041312;28;20768;-80
2024/02/02 07:21:23;;;;;;;25.58;11.13;;;;;;;3.30;100.00;98929.69;5041350;28;20892;-79
2024/02/02 07:23:49;;;;;;;22.17;10.68;;;;;;;3.34;100.00;98940.63;5039593;28;20395;-80
2024/02/02 07:26:26;;;;;;;21.95;10.73;;;;;;;3.38;100.00;98947.16;5039807;28;20427;-80
2024/02/02 07:28:53;;;;;;;29.05;12.15;;;;;;;3.40;100.00;98940.75;5039067;28;20423;-80
2024/02/02 07:31:36;;;;;;;22.35;10.80;;;;;;;3.43;100.00;98947.47;5039189;28;20391;-80
2024/02/02 07:34:29;;;;;;;26.33;11.70;;;;;;;3.44;100.00;98936.03;5036036;28;20446;-79
2024/02/02 07:36:55;;;;;;;27.13;12.05;;;;;;;3.46;100.00;98936.66;5036037;28;20391;-79
2024/02/02 07:39:26;;;;;;;19.60;10.07;;;;;;;3.47;100.00;98933.88;5037859;28;20407;-80
2024/02/02 07:41:54;;;;;;;18.25;9.70;;;;;;;3.50;100.00;98930.94;5039817;28;20411;-81
2024/02/02 07:44:20;;;;;;;18.63;9.23;;;;;;;3.55;100.00;98914.72;5040504;28;20401;-80
2024/02/02 07:46:46;;;;;;;20.67;9.27;;;;;;;3.58;100.00;98901.28;5041919;28;20399;-81
2024/02/02 07:49:13;;;;;;;19.20;9.20;;;;;;;3.62;100.00;98907.00;5039134;28;20446;-80
2024/02/02 07:51:43;;;;;;;18.10;8.85;;;;;;;3.69;100.00;98911.38;5037556;28;20401;-80
2024/02/02 07:54:09;;;;;;;20.35;9.38;;;;;;;3.77;100.00;98902.69;5038080;28;20395;-79
2024/02/02 07:56:35;;;;;;;18.17;9.00;;;;;;;3.85;100.00;98903.47;5038307;28;20403;-80
2024/02/02 07:59:04;;;;;;;17.23;8.68;;;;;;;3.91;100.00;98898.53;5038856;28;20764;-80
2024/02/02 08:01:33;;;;;;;16.13;7.90;;;;;;;3.98;100.00;98907.34;5038909;28;20407;-80
2024/02/02 08:04:00;;;;;;;13.90;7.10;;;;;;;4.04;100.00;98907.47;5037853;28;20426;-80
2024/02/02 08:06:26;;;;;;;13.00;7.00;;;;;;;4.10;100.00;98912.03;5038468;28;20920;-81
2024/02/02 08:08:52;;;;;;;13.75;6.88;;;;;;;4.13;100.00;98914.31;5039145;28;20410;-80
2024/02/02 08:11:18;;;;;;;14.48;6.60;;;;;;;4.16;100.00;98915.75;5038648;28;20400;-81
2024/02/02 08:13:44;;;;;;;14.25;7.07;;;;;;;4.16;100.00;98927.06;5043526;28;20383;-80
2024/02/02 08:16:12;;;;;;;15.38;6.90;;;;;;;4.18;100.00;98919.84;5044607;28;20407;-80
2024/02/02 08:18:38;;;;;;;23.88;10.63;;;;;;;4.17;100.00;98910.34;5036978;28;20433;-80
2024/02/02 08:21:05;;;;;;;17.17;8.90;;;;;;;4.17;100.00;98915.59;5038170;28;20509;-79
2024/02/02 08:23:32;;;;;;;18.13;8.13;;;;;;;4.18;100.00;98925.09;5038177;28;20486;-80
2024/02/02 08:25:58;;;;;;;12.35;6.55;;;;;;;4.19;100.00;98916.25;5037426;28;20910;-80
2024/02/02 08:28:25;;;;;;;11.85;6.45;;;;;;;4.22;100.00;98908.00;5037714;28;20485;-80
2024/02/02 08:30:51;;;;;;;11.77;6.30;;;;;;;4.26;100.00;98898.00;5037080;28;20411;-80
2024/02/02 08:33:18;;;;;;;10.48;6.10;;;;;;;4.32;100.00;98892.06;5036769;28;20391;-80
2024/02/02 08:35:45;;;;;;;11.13;6.18;;;;;;;4.40;100.00;98901.69;5037424;28;20595;-80
2024/02/02 08:38:14;;;;;;;10.63;5.60;;;;;;;4.47;100.00;98905.22;5037174;28;20435;-81
2024/02/02 08:40:43;;;;;;;9.38;5.72;;;;;;;4.52;100.00;98895.84;5037592;28;20384;-81
2024/02/02 08:43:12;;;;;;;11.97;5.63;;;;;;;4.57;100.00;98892.72;5037350;28;20409;-80
2024/02/02 08:46:05;;;;;;;11.30;5.40;;;;;;;4.64;100.00;98901.50;5037492;28;20427;-80
2024/02/02 08:48:40;;;;;;;9.63;5.32;;;;;;;4.68;100.00;98900.16;5037509;28;20419;-80
2024/02/02 08:51:41;;;;;;;8.10;4.97;;;;;;;4.73;100.00;98897.84;5037381;28;20439;-80
2024/02/02 08:54:33;;;;;;;7.82;4.75;;;;;;;4.76;100.00;98899.28;5037295;28;20943;-81
2024/02/02 08:57:23;;;;;;;8.80;4.97;;;;;;;4.80;100.00;98908.44;5037265;28;20934;-81
2024/02/02 08:59:52;;;;;;;9.60;5.57;;;;;;;4.87;100.00;98898.88;5037672;28;20395;-81
2024/02/02 09:02:51;;;;;;;8.65;5.03;;;;;;;4.95;100.00;98897.00;5038372;28;20399;-81
2024/02/02 09:05:21;;;;;;;10.18;6.10;;;;;;;5.05;100.00;98894.91;5037703;28;20395;-81
2024/02/02 09:07:50;;;;;;;15.95;8.35;;;;;;;5.13;100.00;98888.75;5036920;28;20399;-80
2024/02/02 09:10:56;;;;;;;19.33;9.97;;;;;;;5.17;100.00;98891.84;5036724;28;20725;-80
2024/02/02 09:13:24;;;;;;;17.40;8.50;;;;;;;5.22;100.00;98884.25;5020002;28;20489;-81
2024/02/02 09:15:51;;;;;;;10.50;7.03;;;;;;;5.23;100.00;98891.13;5036862;28;20411;-80
2024/02/02 09:18:28;;;;;;;10.43;6.80;;;;;;;5.28;100.00;98909.78;5037475;28;20399;-80
2024/02/02 09:20:55;;;;;;;8.18;6.00;;;;;;;5.29;100.00;98904.34;5037674;28;20387;-80
2024/02/02 09:23:21;;;;;;;10.52;6.68;;;;;;;5.30;100.00;98905.16;5037418;28;20433;-80
2024/02/02 09:25:48;;;;;;;16.20;8.90;;;;;;;5.28;100.00;98907.97;5037751;28;20399;-80
2024/02/02 09:28:41;;;;;;;20.58;10.38;;;;;;;5.24;100.00;98917.22;5036567;28;20391;-80
2024/02/02 09:31:10;;;;;;;12.18;7.63;;;;;;;5.26;100.00;98915.19;5039609;28;20983;-80
2024/02/02 09:33:47;;;;;;;9.93;6.25;;;;;;;5.33;100.00;98908.25;5037791;28;20391;-79
2024/02/02 09:36:15;;;;;;;9.77;6.70;;;;;;;5.39;100.00;98912.78;5037346;28;20403;-80
2024/02/02 09:38:55;;;;;;;10.00;6.30;;;;;;;5.44;100.00;98914.88;5037596;28;20860;-80
2024/02/02 09:41:58;;;;;;;7.25;5.38;;;;;;;5.52;100.00;98909.53;5038024;28;20395;-80
2024/02/02 09:44:45;;;;;;;12.93;8.18;;;;;;;5.57;100.00;98919.47;5037291;28;20494;-80
2024/02/02 09:47:50;;;;;;;20.50;10.65;;;;;;;5.59;100.00;98914.88;5036733;28;20491;-80
2024/02/02 09:50:27;;;;;;;18.92;11.10;;;;;;;5.60;100.00;98909.44;5036641;28;20419;-79
2024/02/02 09:53:20;;;;;;;14.93;9.00;;;;;;;5.66;100.00;98913.94;5037257;28;20437;-80
2024/02/02 09:55:56;;;;;;;16.65;9.60;;;;;;;5.61;100.00;98915.50;5037315;28;20457;-80
2024/02/02 09:58:30;;;;;;;14.95;9.75;;;;;;;5.61;100.00;98905.81;5037685;28;20402;-80
2024/02/02 10:01:07;;;;;;;13.57;8.80;;;;;;;5.60;100.00;98913.88;5038253;28;20881;-80
2024/02/02 10:03:46;;;;;;;15.40;8.55;;;;;;;5.65;100.00;98909.69;5038032;28;20390;-80
2024/02/02 10:06:28;;;;;;;12.02;7.32;;;;;;;5.71;100.00;98919.47;5039378;28;20467;-80
2024/02/02 10:09:23;;;;;;;9.60;6.47;;;;;;;5.81;100.00;98935.78;5039712;28;20446;-79
2024/02/02 10:12:08;;;;;;;6.70;5.43;;;;;;;5.91;100.00;98938.16;5040132;28;20391;-81
2024/02/02 10:14:55;;;;;;;5.93;4.78;;;;;;;6.01;100.00;98935.25;5038922;28;20392;-81
2024/02/02 10:17:32;;;;;;;5.00;4.38;;;;;;;6.10;100.00;98926.25;5039875;28;20403;-82
2024/02/02 10:20:22;;;;;;;11.75;7.20;;;;;;;6.11;100.00;98909.47;5035423;28;20403;-82
2024/02/02 10:23:11;;;;;;;7.63;5.53;;;;;;;6.07;100.00;98918.75;5035310;28;20486;-85
2024/02/02 10:25:55;;;;;;;7.30;5.20;;;;;;;6.07;100.00;98927.44;5040586;28;20710;-84
2024/02/02 10:28:34;;;;;;;9.25;5.70;;;;;;;6.13;100.00;98936.41;5043599;28;20407;-81
2024/02/02 10:31:16;;;;;;;6.25;4.93;;;;;;;6.37;100.00;98928.19;5042275;28;20863;-83
2024/02/02 10:33:57;;;;;;;5.60;4.35;;;;;;;6.95;100.00;98902.63;5039181;28;20395;-84
2024/02/02 10:36:36;;;;;;;4.35;3.60;;;;;;;7.34;100.00;98902.91;5039209;28;20749;-84
2024/02/02 10:39:27;;;;;;;5.20;4.30;;;;;;;7.43;100.00;98895.66;5040414;28;20401;-85
2024/02/02 10:42:12;;;;;;;6.00;4.55;;;;;;;7.64;100.00;98887.66;5039923;28;20455;-85
2024/02/02 10:44:50;;;;;;;6.75;3.95;;;;;;;7.75;100.00;98878.38;5034004;28;20429;-84
2024/02/02 10:47:29;;;;;;;5.30;3.78;;;;;;;7.86;100.00;98882.28;5038524;28;20392;-84
2024/02/02 10:50:07;;;;;;;3.13;2.83;;;;;;;8.14;100.00;98881.16;5038999;28;20484;-84
2024/02/02 10:52:45;;;;;;;5.30;3.67;;;;;;;9.00;100.00;98877.84;5032026;28;20474;-85
2024/02/02 10:55:30;;;;;;;4.60;3.30;;;;;;;9.80;100.00;98866.91;5038762;28;20403;-84
2024/02/02 10:58:08;;;;;;;3.90;2.45;;;;;;;10.07;100.00;98859.66;5033660;28;20393;-84
2024/02/02 11:00:51;;;;;;;3.95;2.70;;;;;;;10.33;100.00;98845.50;5033680;28;20807;-85
2024/02/02 11:03:28;;;;;;;5.60;2.80;;;;;;;9.96;100.00;98832.03;5033519;28;20460;-82
2024/02/02 11:06:06;;;;;;;3.38;2.55;;;;;;;10.50;100.00;98840.50;5033968;28;20856;-81
2024/02/02 11:08:37;;;;;;;3.22;2.50;;;;;;;10.83;100.00;98825.16;5034037;28;20442;-85
2024/02/02 11:11:07;;;;;;;2.80;2.40;;;;;;;11.19;100.00;98819.13;5039339;28;20395;-82
2024/02/02 11:13:43;;;;;;;3.27;2.47;;;;;;;11.42;100.00;98821.94;5042167;28;20399;-83
2024/02/02 11:16:30;;;;;;;3.92;2.58;;;;;;;11.66;100.00;98828.16;5040963;28;20458;-84
2024/02/02 11:19:13;;;;;;;3.28;2.60;;;;;;;11.69;100.00;98822.41;5037512;28;20409;-82
2024/02/02 11:21:57;;;;;;;3.10;2.47;;;;;;;11.48;100.00;98828.19;5033793;28;20426;-82
2024/02/02 11:24:34;;;;;;;2.30;2.10;;;;;;;11.72;100.00;98826.47;5036285;28;20404;-82
2024/02/02 11:27:08;;;;;;;2.47;1.90;;;;;;;12.29;100.00;98836.56;5036511;28;20413;-83
2024/02/02 11:29:47;;;;;;;2.78;2.05;;;;;;;12.43;100.00;98817.75;5037166;28;20442;-82
2024/02/02 11:32:33;;;;;;;2.40;1.90;;;;;;;12.48;100.00;98829.31;5038484;28;20391;-84
2024/02/02 11:35:09;;;;;;;2.90;2.40;;;;;;;12.33;100.00;98811.16;5043538;28;20391;-80
2024/02/02 11:37:53;;;;;;;5.25;2.38;;;;;;;12.02;100.00;98808.78;5040208;28;20395;-81